Woodbury, Texas
Current Conditions -  °F | °C
As of 8:35 PM on Wednesday 22 Oct 2014 (Local Time) from KINJ Reporting Station
Clear Clear  
Wind Chill: 71°   Ceiling: Unl
Heat Index: 71°   Visibility: 10mi
Dew Point: 55°   Wind: 5mph
Humidity: 57%   Direction: 90°E
Pressure: 30.1"   Gusts: NA
Location:  32.0499°N, 97.1039°W
Report Text: KINJ 230135Z AUTO 09004KT 10SM CLR 22/13 A3010 RMK AO2 T02150126
Loading
Personal Weather Stations






























Interactive Weather Map
Tropical Storm Tracking
New forecast layout! Learn more

10-Day Weather Forecast

Advertisements
Track Severe Weather on mobile